Time;durP1;ratioP1;P1;durP2;ratioP2;P2;SDS_P1;SDS_P2;PMS_P1;PMS_P2;Temp;Humidity;BMP_temperature;BMP_pressure;BME280_temperature;BME280_humidity;BME280_pressure;Samples;Min_cycle;Max_cycle;Signal;HPM_P1;HPM_P2
2022/10/30 00:01:07;;;;;;;19.13;8.90;;;;;;;-145.14;100.00;70583.66;5040381;28;20277;-75
2022/10/30 00:03:33;;;;;;;12.00;7.90;;;;;;;-145.14;100.00;70583.66;5036978;28;20601;-76
2022/10/30 00:05:58;;;;;;;19.23;9.20;;;;;;;-145.14;100.00;70583.66;5035333;28;20210;-75
2022/10/30 00:08:26;;;;;;;13.40;8.50;;;;;;;-145.14;100.00;70583.66;5042839;28;20183;-75
2022/10/30 00:10:52;;;;;;;16.50;10.17;;;;;;;-145.14;100.00;70583.66;5039018;28;20191;-75
2022/10/30 00:13:19;;;;;;;20.53;8.63;;;;;;;-145.14;100.00;70583.66;5044094;28;20442;-76
2022/10/30 00:15:50;;;;;;;15.53;9.13;;;;;;;-145.14;100.00;70583.66;5048474;28;20187;-75
2022/10/30 00:18:15;;;;;;;14.40;8.67;;;;;;;-145.14;100.00;70583.66;5038597;28;20933;-75
2022/10/30 00:20:41;;;;;;;18.30;7.63;;;;;;;-145.14;100.00;70583.66;5037517;28;20438;-75
2022/10/30 00:23:06;;;;;;;14.73;8.30;;;;;;;-145.14;100.00;70583.66;5037897;28;20246;-75
2022/10/30 00:25:35;;;;;;;14.20;8.70;;;;;;;-145.14;100.00;70583.66;5039835;28;20525;-76
2022/10/30 00:28:00;;;;;;;16.07;8.77;;;;;;;-145.14;100.00;70583.66;5026365;28;20550;-76
2022/10/30 00:30:26;;;;;;;16.33;8.80;;;;;;;-145.14;100.00;70583.66;5042144;28;20456;-76
2022/10/30 00:32:51;;;;;;;15.47;9.27;;;;;;;-145.14;100.00;70583.66;5042362;28;20958;-76
2022/10/30 00:35:17;;;;;;;13.70;8.40;;;;;;;-145.14;100.00;70583.66;5036986;28;20192;-76
2022/10/30 00:37:42;;;;;;;16.50;9.30;;;;;;;-145.14;100.00;70583.66;5035301;28;20562;-76
2022/10/30 00:40:14;;;;;;;15.03;9.90;;;;;;;-145.14;100.00;70583.66;5036332;28;20648;-76
2022/10/30 00:42:40;;;;;;;16.63;9.33;;;;;;;-145.14;100.00;70583.66;5042088;28;20207;-75
2022/10/30 00:45:08;;;;;;;13.50;9.10;;;;;;;-145.14;100.00;70583.66;5035631;28;20443;-76
2022/10/30 00:47:49;;;;;;;15.77;9.17;;;;;;;-145.14;100.00;70583.66;5030880;28;20696;-75
2022/10/30 00:50:20;;;;;;;15.93;9.60;;;;;;;-145.14;100.00;70583.66;5039128;28;20426;-75
2022/10/30 00:52:55;;;;;;;15.20;9.53;;;;;;;-145.14;100.00;70583.66;5041710;28;20465;-76
2022/10/30 00:55:29;;;;;;;15.93;9.60;;;;;;;-145.14;100.00;70583.66;5036824;28;20664;-78
2022/10/30 00:57:55;;;;;;;20.20;9.30;;;;;;;-145.14;100.00;70583.66;5043335;28;20495;-75
2022/10/30 01:00:23;;;;;;;14.70;9.03;;;;;;;-145.14;100.00;70583.66;5041134;28;20442;-75
2022/10/30 01:02:51;;;;;;;15.70;8.93;;;;;;;-145.14;100.00;70583.66;5039814;28;20503;-78
2022/10/30 01:05:18;;;;;;;16.60;9.97;;;;;;;-145.14;100.00;70583.66;5035332;28;20922;-77
2022/10/30 01:07:44;;;;;;;19.27;8.97;;;;;;;-145.14;100.00;70583.66;5033992;28;20443;-76
2022/10/30 01:10:12;;;;;;;14.33;9.20;;;;;;;-145.14;100.00;70583.66;5043010;28;21029;-77
2022/10/30 01:12:38;;;;;;;18.17;9.47;;;;;;;-145.14;100.00;70583.66;5044693;28;20211;-77
2022/10/30 01:15:05;;;;;;;20.30;10.40;;;;;;;-145.14;100.00;70583.66;5046518;28;20950;-78
2022/10/30 01:17:49;;;;;;;20.87;11.47;;;;;;;-145.14;100.00;70583.66;5041007;28;20469;-77
2022/10/30 01:20:27;;;;;;;17.97;10.30;;;;;;;-145.14;100.00;70583.66;5042430;28;21019;-78
2022/10/30 01:23:11;;;;;;;21.00;9.47;;;;;;;-145.14;100.00;70583.66;5044038;28;20512;-76
2022/10/30 01:25:58;;;;;;;19.83;10.13;;;;;;;-145.14;100.00;70583.66;5039715;28;20602;-75
2022/10/30 01:28:54;;;;;;;16.70;10.43;;;;;;;-145.14;100.00;70583.66;5039173;28;20450;-76
2022/10/30 01:31:57;;;;;;;13.63;9.93;;;;;;;-145.14;100.00;70583.66;5040928;28;20508;-76
2022/10/30 01:34:41;;;;;;;18.33;9.77;;;;;;;-145.14;100.00;70583.66;5041241;28;20437;-74
2022/10/30 01:37:18;;;;;;;18.13;9.40;;;;;;;-145.14;100.00;70583.66;5044199;28;20497;-75
2022/10/30 01:39:44;;;;;;;11.70;8.70;;;;;;;-145.14;100.00;70583.66;5043329;28;20441;-78
2022/10/30 01:42:28;;;;;;;13.67;8.77;;;;;;;-145.14;100.00;70583.66;5039877;28;20458;-76
2022/10/30 01:44:53;;;;;;;16.50;8.87;;;;;;;-145.14;100.00;70583.66;5042700;28;20186;-76
2022/10/30 01:47:42;;;;;;;13.40;9.67;;;;;;;-145.14;100.00;70583.66;5032886;28;20964;-76
2022/10/30 01:50:33;;;;;;;21.20;9.00;;;;;;;-145.14;100.00;70583.66;5039516;28;20195;-76
2022/10/30 01:53:26;;;;;;;16.97;10.03;;;;;;;-145.14;100.00;70583.66;5043182;28;20444;-76
2022/10/30 01:55:59;;;;;;;15.67;9.43;;;;;;;-145.14;100.00;70583.66;5044985;28;20425;-76
2022/10/30 01:58:38;;;;;;;17.23;8.90;;;;;;;-145.14;100.00;70583.66;5040702;28;20447;-76
2022/10/30 02:01:04;;;;;;;18.00;9.37;;;;;;;-145.14;100.00;70583.66;5046175;28;20701;-76
2022/10/30 02:03:29;;;;;;;17.20;9.23;;;;;;;-145.14;100.00;70583.66;5038680;28;20426;-76
2022/10/30 02:05:55;;;;;;;10.50;7.90;;;;;;;-145.14;100.00;70583.66;5038406;28;20607;-76
2022/10/30 02:08:21;;;;;;;15.93;9.10;;;;;;;-145.14;100.00;70583.66;5032475;28;20183;-76
2022/10/30 02:10:48;;;;;;;17.23;9.20;;;;;;;-145.14;100.00;70583.66;5045248;28;20619;-77
2022/10/30 02:13:14;;;;;;;14.53;9.20;;;;;;;-145.14;100.00;70583.66;5043999;28;20183;-76
2022/10/30 02:15:41;;;;;;;13.23;8.20;;;;;;;-145.14;100.00;70583.66;5039734;28;20439;-76
2022/10/30 02:18:08;;;;;;;17.03;9.10;;;;;;;-145.14;100.00;70583.66;5045943;28;20528;-76
2022/10/30 02:20:33;;;;;;;14.97;9.10;;;;;;;-145.14;100.00;70583.66;5039120;28;20456;-76
2022/10/30 02:22:59;;;;;;;13.10;8.77;;;;;;;-145.14;100.00;70583.66;5044335;28;20491;-76
2022/10/30 02:25:24;;;;;;;18.47;8.73;;;;;;;-145.14;100.00;70583.66;5036186;28;20187;-76
2022/10/30 02:27:50;;;;;;;22.00;9.23;;;;;;;-145.14;100.00;70583.66;5017859;28;20599;-76
2022/10/30 02:30:15;;;;;;;31.20;10.43;;;;;;;-145.14;100.00;70583.66;5025892;28;20565;-76
2022/10/30 02:32:41;;;;;;;14.80;8.23;;;;;;;-145.14;100.00;70583.66;5022731;28;20779;-76
2022/10/30 02:35:06;;;;;;;14.87;9.30;;;;;;;-145.14;100.00;70583.66;5023117;28;20972;-76
2022/10/30 02:37:34;;;;;;;20.20;10.23;;;;;;;-145.14;100.00;70583.66;5024704;28;20734;-76
2022/10/30 02:40:00;;;;;;;20.10;9.63;;;;;;;-145.14;100.00;70583.66;5021517;28;20664;-77
2022/10/30 02:42:25;;;;;;;15.10;10.00;;;;;;;-145.14;100.00;70583.66;5018938;28;20474;-76
2022/10/30 02:44:51;;;;;;;14.60;9.50;;;;;;;-145.14;100.00;70583.66;5018273;28;20455;-77
2022/10/30 02:47:16;;;;;;;17.83;10.00;;;;;;;-145.14;100.00;70583.66;5018822;28;20547;-76
2022/10/30 02:49:42;;;;;;;14.53;9.17;;;;;;;-145.14;100.00;70583.66;5023395;28;20191;-76
2022/10/30 02:52:07;;;;;;;17.20;9.23;;;;;;;-145.14;100.00;70583.66;5021681;28;20211;-76
2022/10/30 02:54:34;;;;;;;19.67;10.33;;;;;;;-145.14;100.00;70583.66;5023738;28;20192;-77
2022/10/30 02:56:59;;;;;;;15.67;9.00;;;;;;;-145.14;100.00;70583.66;5028913;28;20738;-76
2022/10/30 02:59:24;;;;;;;16.77;10.27;;;;;;;-145.14;100.00;70583.66;5020119;28;20489;-76
2022/10/30 03:01:50;;;;;;;13.37;8.83;;;;;;;-145.14;100.00;70583.66;5029853;28;20302;-77
2022/10/30 03:04:15;;;;;;;16.23;9.60;;;;;;;-145.14;100.00;70583.66;5022186;28;20381;-78
2022/10/30 03:06:41;;;;;;;22.10;10.53;;;;;;;-145.14;100.00;70583.66;5018588;28;20215;-77
2022/10/30 03:09:06;;;;;;;15.20;9.07;;;;;;;-145.14;100.00;70583.66;5021042;28;20183;-77
2022/10/30 03:11:33;;;;;;;13.13;9.13;;;;;;;-145.14;100.00;70583.66;5017219;28;20215;-76
2022/10/30 03:13:58;;;;;;;23.03;11.00;;;;;;;-145.14;100.00;70583.66;5018432;28;20191;-77
2022/10/30 03:16:28;;;;;;;14.70;9.40;;;;;;;-145.14;100.00;70583.66;5027432;28;20474;-76
2022/10/30 03:18:54;;;;;;;15.80;9.50;;;;;;;-145.14;100.00;70583.66;5016703;28;20665;-77
2022/10/30 03:21:21;;;;;;;15.90;9.37;;;;;;;-145.14;100.00;70583.66;5016747;28;20458;-76
2022/10/30 03:23:49;;;;;;;13.43;8.70;;;;;;;-145.14;100.00;70583.66;5015744;28;20496;-77
2022/10/30 03:26:15;;;;;;;18.80;8.90;;;;;;;-145.14;100.00;70583.66;5030620;28;20454;-78
2022/10/30 03:28:41;;;;;;;17.13;9.23;;;;;;;-145.14;100.00;70583.66;5016147;28;20994;-76
2022/10/30 03:31:09;;;;;;;16.77;9.13;;;;;;;-145.14;100.00;70583.66;5029352;28;20484;-76
2022/10/30 03:33:36;;;;;;;12.77;8.43;;;;;;;-145.14;100.00;70583.66;5021963;28;20195;-76
2022/10/30 03:36:04;;;;;;;11.60;8.33;;;;;;;-145.14;100.00;70583.66;5022897;28;21109;-77
2022/10/30 03:38:29;;;;;;;15.07;9.60;;;;;;;-145.14;100.00;70583.66;5032925;28;20557;-77
2022/10/30 03:40:54;;;;;;;10.57;8.23;;;;;;;-145.14;100.00;70583.66;5019603;28;20478;-77
2022/10/30 03:43:20;;;;;;;14.03;8.50;;;;;;;-145.14;100.00;70583.66;5019635;28;20206;-77
2022/10/30 03:45:50;;;;;;;19.13;9.13;;;;;;;-145.14;100.00;70583.66;5020788;28;20293;-77
2022/10/30 03:48:17;;;;;;;19.90;9.87;;;;;;;-145.14;100.00;70583.66;5018148;28;20239;-76
2022/10/30 03:50:43;;;;;;;15.90;9.10;;;;;;;-145.14;100.00;70583.66;5012202;28;20445;-76
2022/10/30 03:53:09;;;;;;;17.47;9.43;;;;;;;-145.14;100.00;70583.66;5022146;28;20489;-77
2022/10/30 03:55:35;;;;;;;16.93;10.43;;;;;;;-145.14;100.00;70583.66;5020417;28;20279;-76
2022/10/30 03:58:00;;;;;;;12.13;8.53;;;;;;;-145.14;100.00;70583.66;5033848;28;20941;-76
2022/10/30 04:00:26;;;;;;;12.53;8.30;;;;;;;-145.14;100.00;70583.66;5017003;28;20843;-77
2022/10/30 04:02:52;;;;;;;19.27;9.63;;;;;;;-145.14;100.00;70583.66;5043573;22;20258;-76
2022/10/30 04:05:22;;;;;;;15.80;9.10;;;;;;;-145.14;100.00;70583.66;5019242;28;20183;-76
2022/10/30 04:07:47;;;;;;;14.90;9.30;;;;;;;-145.14;100.00;70583.66;5021841;28;20278;-77
2022/10/30 04:10:13;;;;;;;15.10;9.13;;;;;;;-145.14;100.00;70583.66;5040032;28;20445;-77
2022/10/30 04:12:39;;;;;;;14.60;8.60;;;;;;;-145.14;100.00;70583.66;5031482;28;20208;-77
2022/10/30 04:15:07;;;;;;;13.77;8.40;;;;;;;-145.14;100.00;70583.66;5000716;28;20446;-77
2022/10/30 04:17:33;;;;;;;13.13;8.27;;;;;;;-145.14;100.00;70583.66;5018658;28;20215;-77
2022/10/30 04:19:58;;;;;;;14.30;8.00;;;;;;;-145.14;100.00;70583.66;5019472;28;20474;-78
2022/10/30 04:22:24;;;;;;;20.33;9.23;;;;;;;-145.14;100.00;70583.66;5022697;28;21081;-77
2022/10/30 04:24:49;;;;;;;14.50;8.67;;;;;;;-145.14;100.00;70583.66;5022619;28;20219;-78
2022/10/30 04:27:15;;;;;;;17.20;8.70;;;;;;;-145.14;100.00;70583.66;4997148;28;20622;-77
2022/10/30 04:29:41;;;;;;;18.47;10.33;;;;;;;-145.14;100.00;70583.66;5005530;28;20223;-77
2022/10/30 04:32:07;;;;;;;18.10;8.60;;;;;;;-145.14;100.00;70583.66;5018447;28;20525;-77
2022/10/30 04:34:33;;;;;;;11.50;9.03;;;;;;;-145.14;100.00;70583.66;5020621;28;20195;-77
2022/10/30 04:36:58;;;;;;;14.10;8.87;;;;;;;-145.14;100.00;70583.66;5019534;28;20935;-77
2022/10/30 04:39:23;;;;;;;10.93;8.20;;;;;;;-145.14;100.00;70583.66;5021639;28;20192;-77
2022/10/30 04:41:49;;;;;;;20.57;9.03;;;;;;;-145.14;100.00;70583.66;5023521;28;20192;-77
2022/10/30 04:44:14;;;;;;;20.10;9.47;;;;;;;-145.14;100.00;70583.66;5023924;28;20211;-77
2022/10/30 04:46:40;;;;;;;19.83;8.70;;;;;;;-145.14;100.00;70583.66;5026635;28;20195;-77
2022/10/30 04:49:05;;;;;;;15.80;9.30;;;;;;;-145.14;100.00;70583.66;5019065;28;20197;-77
2022/10/30 04:51:30;;;;;;;14.10;8.40;;;;;;;-145.14;100.00;70583.66;5022027;28;20192;-77
2022/10/30 04:53:57;;;;;;;15.87;8.90;;;;;;;-145.14;100.00;70583.66;5019393;28;20213;-77
2022/10/30 04:56:23;;;;;;;17.90;8.67;;;;;;;-145.14;100.00;70583.66;5017759;28;20565;-77
2022/10/30 04:58:48;;;;;;;16.87;9.77;;;;;;;-145.14;100.00;70583.66;5020865;28;20459;-78
2022/10/30 05:01:13;;;;;;;16.40;8.33;;;;;;;-145.14;100.00;70583.66;5021324;28;20189;-77
2022/10/30 05:03:39;;;;;;;14.23;8.10;;;;;;;-145.14;100.00;70583.66;5021742;28;20966;-77
2022/10/30 05:06:30;;;;;;;17.00;9.53;;;;;;;-145.14;100.00;70583.66;5020898;28;20211;-76
2022/10/30 05:08:56;;;;;;;15.30;8.90;;;;;;;-145.14;100.00;70583.66;5015951;28;20205;-76
2022/10/30 05:11:22;;;;;;;15.73;8.53;;;;;;;-145.14;100.00;70583.66;5021429;28;20469;-76
2022/10/30 05:13:47;;;;;;;14.50;8.80;;;;;;;-145.14;100.00;70583.66;5024556;28;20262;-77
2022/10/30 05:16:13;;;;;;;18.20;9.73;;;;;;;-145.14;100.00;70583.66;5019115;28;20216;-77
2022/10/30 05:18:38;;;;;;;14.93;8.07;;;;;;;-145.14;100.00;70583.66;5019991;28;20645;-77
2022/10/30 05:21:04;;;;;;;13.63;8.90;;;;;;;-145.14;100.00;70583.66;5019342;28;20180;-77
2022/10/30 05:23:29;;;;;;;13.93;8.90;;;;;;;-145.14;100.00;70583.66;5018337;28;20345;-77
2022/10/30 05:25:54;;;;;;;14.90;9.00;;;;;;;-145.14;100.00;70583.66;5021569;28;20193;-77
2022/10/30 05:28:20;;;;;;;13.17;9.47;;;;;;;-145.14;100.00;70583.66;5020247;28;20323;-77
2022/10/30 05:30:45;;;;;;;14.00;8.50;;;;;;;-145.14;100.00;70583.66;5023014;28;20216;-77
2022/10/30 05:33:11;;;;;;;16.70;8.80;;;;;;;-145.14;100.00;70583.66;5019787;28;20216;-76
2022/10/30 05:35:37;;;;;;;12.30;9.17;;;;;;;-145.14;100.00;70583.66;5005042;28;20193;-77
2022/10/30 05:38:05;;;;;;;15.47;9.30;;;;;;;-145.14;100.00;70583.66;5017856;28;20788;-76
2022/10/30 05:40:32;;;;;;;21.10;8.70;;;;;;;-145.14;100.00;70583.66;5017688;28;20555;-76
2022/10/30 05:42:58;;;;;;;16.40;8.53;;;;;;;-145.14;100.00;70583.66;5000674;28;20572;-77
2022/10/30 05:45:23;;;;;;;15.07;8.87;;;;;;;-145.14;100.00;70583.66;5024199;28;20543;-77
2022/10/30 05:48:09;;;;;;;19.50;9.20;;;;;;;-145.14;100.00;70583.66;5024323;28;20699;-76
2022/10/30 05:50:34;;;;;;;14.43;9.73;;;;;;;-145.14;100.00;70583.66;5025829;28;20218;-76
2022/10/30 05:53:04;;;;;;;26.23;15.60;;;;;;;-145.14;100.00;70583.66;5004827;28;20825;-76
2022/10/30 05:55:30;;;;;;;15.47;11.97;;;;;;;-145.14;100.00;70583.66;5022142;28;20193;-77
2022/10/30 05:58:00;;;;;;;16.70;11.40;;;;;;;-145.14;100.00;70583.66;5021294;28;20497;-77
2022/10/30 06:00:28;;;;;;;14.03;10.20;;;;;;;-145.14;100.00;70583.66;5022828;28;20303;-76
2022/10/30 06:03:05;;;;;;;15.23;9.30;;;;;;;-145.14;100.00;70583.66;5025362;28;20478;-76
2022/10/30 06:05:32;;;;;;;18.83;9.50;;;;;;;-145.14;100.00;70583.66;5019911;28;20483;-76
2022/10/30 06:07:57;;;;;;;22.00;9.77;;;;;;;-145.14;100.00;70583.66;5024178;28;20991;-76
2022/10/30 06:10:23;;;;;;;13.40;10.17;;;;;;;-145.14;100.00;70583.66;5025326;28;20475;-76
2022/10/30 06:12:56;;;;;;;23.13;11.10;;;;;;;-145.14;100.00;70583.66;5024876;28;20208;-76
2022/10/30 06:15:22;;;;;;;16.83;9.70;;;;;;;-145.14;100.00;70583.66;5026578;28;20432;-77
2022/10/30 06:17:48;;;;;;;17.37;11.20;;;;;;;-145.14;100.00;70583.66;5030044;28;20439;-76
2022/10/30 06:20:14;;;;;;;15.63;11.33;;;;;;;-145.14;100.00;70583.66;5026647;28;20195;-77
2022/10/30 06:22:39;;;;;;;24.37;10.97;;;;;;;-145.14;100.00;70583.66;5026233;28;20216;-76
2022/10/30 06:25:05;;;;;;;14.63;11.57;;;;;;;-145.14;100.00;70583.66;5027184;28;20445;-76
2022/10/30 06:27:34;;;;;;;17.77;10.37;;;;;;;-145.14;100.00;70583.66;5026358;28;20315;-76
2022/10/30 06:29:59;;;;;;;16.07;8.83;;;;;;;-145.14;100.00;70583.66;5024691;28;21084;-76
2022/10/30 06:32:25;;;;;;;15.33;8.50;;;;;;;-145.14;100.00;70583.66;5029881;28;20987;-76
2022/10/30 06:34:50;;;;;;;13.40;8.67;;;;;;;-145.14;100.00;70583.66;5027955;28;20262;-77
2022/10/30 06:37:15;;;;;;;18.03;9.30;;;;;;;-145.14;100.00;70583.66;5027883;28;20184;-77
2022/10/30 06:39:41;;;;;;;21.33;11.83;;;;;;;-145.14;100.00;70583.66;5020769;28;20279;-77
2022/10/30 06:42:07;;;;;;;23.83;12.17;;;;;;;-145.14;100.00;70583.66;5028688;28;20196;-77
2022/10/30 06:44:32;;;;;;;16.90;11.73;;;;;;;-145.14;100.00;70583.66;5026834;28;20275;-77
2022/10/30 06:46:57;;;;;;;21.50;11.40;;;;;;;-145.14;100.00;70583.66;5026346;28;20200;-76
2022/10/30 06:49:23;;;;;;;17.40;12.40;;;;;;;-145.14;100.00;70583.66;5026335;28;20260;-76
2022/10/30 06:51:52;;;;;;;16.60;10.90;;;;;;;-145.14;100.00;70583.66;5025864;28;20270;-76
2022/10/30 06:54:17;;;;;;;18.10;10.90;;;;;;;-145.14;100.00;70583.66;5026859;28;20645;-76
2022/10/30 06:56:42;;;;;;;17.23;10.27;;;;;;;-145.14;100.00;70583.66;5028527;28;20430;-77
2022/10/30 06:59:09;;;;;;;19.97;10.63;;;;;;;-145.14;100.00;70583.66;5027385;28;20640;-76
2022/10/30 07:01:34;;;;;;;19.03;9.60;;;;;;;-145.14;100.00;70583.66;5025902;28;20180;-77
2022/10/30 07:04:00;;;;;;;16.10;9.87;;;;;;;-145.14;100.00;70583.66;5022864;28;20481;-77
2022/10/30 07:06:25;;;;;;;17.37;10.70;;;;;;;-145.14;100.00;70583.66;5027791;28;20180;-77
2022/10/30 07:08:51;;;;;;;12.70;10.03;;;;;;;-145.14;100.00;70583.66;5023235;28;20192;-76
2022/10/30 07:11:18;;;;;;;22.57;9.10;;;;;;;-145.14;100.00;70583.66;5016103;28;20181;-78
2022/10/30 07:13:44;;;;;;;14.90;9.80;;;;;;;-145.14;100.00;70583.66;5007534;28;20687;-76
2022/10/30 07:16:09;;;;;;;16.57;10.47;;;;;;;-145.14;100.00;70583.66;5002380;28;20447;-76
2022/10/30 07:18:34;;;;;;;18.83;10.87;;;;;;;-145.14;100.00;70583.66;5004453;28;20283;-77
2022/10/30 07:21:00;;;;;;;15.33;9.83;;;;;;;-145.14;100.00;70583.66;5022483;28;20283;-76
2022/10/30 07:23:25;;;;;;;19.40;10.97;;;;;;;-145.14;100.00;70583.66;4999494;28;20215;-76
2022/10/30 07:25:51;;;;;;;18.47;10.57;;;;;;;-145.14;100.00;70583.66;5008464;28;20685;-77
2022/10/30 07:28:16;;;;;;;17.67;9.57;;;;;;;-145.14;100.00;70583.66;5016341;28;20217;-77
2022/10/30 07:30:41;;;;;;;21.87;10.50;;;;;;;-145.14;100.00;70583.66;5000218;28;20672;-77
2022/10/30 07:33:09;;;;;;;24.00;10.80;;;;;;;-145.14;100.00;70583.66;5003747;28;20409;-77
2022/10/30 07:35:35;;;;;;;14.37;8.33;;;;;;;-145.14;100.00;70583.66;5014619;28;20283;-77
2022/10/30 07:38:05;;;;;;;19.67;10.00;;;;;;;-145.14;100.00;70583.66;5013526;28;20533;-77
2022/10/30 07:40:31;;;;;;;16.17;9.73;;;;;;;-145.14;100.00;70583.66;5019513;28;20497;-77
2022/10/30 07:42:58;;;;;;;16.30;9.03;;;;;;;-145.14;100.00;70583.66;5001706;28;21555;-77
2022/10/30 07:45:24;;;;;;;16.90;9.83;;;;;;;-145.14;100.00;70583.66;5013001;28;20541;-76
2022/10/30 07:47:49;;;;;;;14.03;9.50;;;;;;;-145.14;100.00;70583.66;5005099;28;20463;-76
2022/10/30 07:50:15;;;;;;;15.13;9.33;;;;;;;-145.14;100.00;70583.66;5017154;28;20629;-77
2022/10/30 07:52:40;;;;;;;20.37;10.47;;;;;;;-145.14;100.00;70583.66;5016396;28;20220;-75
2022/10/30 07:55:06;;;;;;;18.30;11.00;;;;;;;-145.14;100.00;70583.66;5016286;28;20669;-77
2022/10/30 07:57:39;;;;;;;14.37;10.57;;;;;;;-145.14;100.00;70583.66;4999253;28;20184;-77
2022/10/30 08:00:11;;;;;;;15.90;9.80;;;;;;;-145.14;100.00;70583.66;4996656;28;20184;-76
2022/10/30 08:02:37;;;;;;;15.50;9.80;;;;;;;-145.14;100.00;70583.66;5013895;28;20486;-77
2022/10/30 08:05:03;;;;;;;20.73;11.10;;;;;;;-145.14;100.00;70583.66;5013543;28;20446;-75
2022/10/30 08:07:34;;;;;;;20.07;10.27;;;;;;;-145.14;100.00;70583.66;5010487;28;20208;-75
2022/10/30 08:10:00;;;;;;;12.67;8.40;;;;;;;-145.14;100.00;70583.66;5019623;28;21277;-75
2022/10/30 08:12:26;;;;;;;14.27;10.70;;;;;;;-145.14;100.00;70583.66;5017869;28;20467;-74
2022/10/30 08:14:52;;;;;;;17.97;11.03;;;;;;;-145.14;100.00;70583.66;5019173;28;20947;-74
2022/10/30 08:17:18;;;;;;;16.10;9.87;;;;;;;-145.14;100.00;70583.66;4997867;28;20442;-75
2022/10/30 08:19:43;;;;;;;16.70;10.20;;;;;;;-145.14;100.00;70583.66;5018385;28;20448;-75
2022/10/30 08:22:12;;;;;;;18.67;10.40;;;;;;;-145.14;100.00;70583.66;4998923;28;20813;-75
2022/10/30 08:24:38;;;;;;;21.70;10.90;;;;;;;-145.14;100.00;70583.66;5005731;28;20191;-75
2022/10/30 08:27:04;;;;;;;19.60;9.93;;;;;;;-145.14;100.00;70583.66;4998648;28;20934;-75
2022/10/30 08:29:30;;;;;;;15.00;10.53;;;;;;;-145.14;100.00;70583.66;5015227;28;20188;-76
2022/10/30 08:31:55;;;;;;;12.83;9.70;;;;;;;-145.14;100.00;70583.66;5008677;28;20512;-73
2022/10/30 08:34:21;;;;;;;17.40;10.13;;;;;;;-145.14;100.00;70583.66;4994392;28;20231;-73
2022/10/30 08:36:48;;;;;;;17.33;10.67;;;;;;;-145.14;100.00;70583.66;4996911;28;20276;-76
2022/10/30 08:39:14;;;;;;;12.63;9.60;;;;;;;-145.14;100.00;70583.66;5000802;28;20902;-74
2022/10/30 08:41:39;;;;;;;16.57;10.50;;;;;;;-145.14;100.00;70583.66;5015208;28;20439;-76
2022/10/30 08:44:05;;;;;;;14.37;10.23;;;;;;;-145.14;100.00;70583.66;4990451;28;20212;-75
2022/10/30 08:46:30;;;;;;;20.60;11.73;;;;;;;-145.14;100.00;70583.66;5014694;28;20196;-76
2022/10/30 08:48:55;;;;;;;17.30;10.50;;;;;;;-145.14;100.00;70583.66;5002927;28;20202;-76
2022/10/30 08:51:24;;;;;;;20.10;10.80;;;;;;;-145.14;100.00;70583.66;5011203;28;20271;-77
2022/10/30 08:53:49;;;;;;;15.93;10.77;;;;;;;-145.14;100.00;70583.66;5003505;28;20238;-76
2022/10/30 08:56:16;;;;;;;19.97;11.67;;;;;;;-145.14;100.00;70583.66;5023550;28;20451;-76
2022/10/30 08:58:41;;;;;;;15.67;11.40;;;;;;;-145.14;100.00;70583.66;5023829;28;20746;-76
2022/10/30 09:01:07;;;;;;;21.73;11.90;;;;;;;-145.14;100.00;70583.66;5022883;28;20475;-76
2022/10/30 09:03:32;;;;;;;19.20;11.40;;;;;;;-145.14;100.00;70583.66;5008694;28;20239;-78
2022/10/30 09:05:58;;;;;;;23.73;10.90;;;;;;;-145.14;100.00;70583.66;5018909;28;20192;-76
2022/10/30 09:08:24;;;;;;;16.30;10.03;;;;;;;-145.14;100.00;70583.66;5021828;28;20200;-76
2022/10/30 09:10:56;;;;;;;17.83;10.83;;;;;;;-145.14;100.00;70583.66;5004160;28;20966;-76
2022/10/30 09:13:23;;;;;;;18.90;11.40;;;;;;;-145.14;100.00;70583.66;5009437;28;20215;-78
2022/10/30 09:15:48;;;;;;;19.73;10.37;;;;;;;-145.14;100.00;70583.66;5023407;28;20444;-77
2022/10/30 09:18:13;;;;;;;15.00;9.27;;;;;;;-145.14;100.00;70583.66;5017133;28;20495;-77
2022/10/30 09:20:39;;;;;;;16.43;11.60;;;;;;;-145.14;100.00;70583.66;5018555;28;20267;-79
2022/10/30 09:23:04;;;;;;;15.60;10.70;;;;;;;-145.14;100.00;70583.66;5001025;28;20755;-76
2022/10/30 09:25:29;;;;;;;16.27;9.50;;;;;;;-145.14;100.00;70583.66;5005403;28;20188;-78
2022/10/30 09:27:55;;;;;;;16.07;9.90;;;;;;;-145.14;100.00;70583.66;5026354;28;20238;-79
2022/10/30 09:30:21;;;;;;;14.30;11.50;;;;;;;-145.14;100.00;70583.66;5020878;28;20179;-78
2022/10/30 09:32:53;;;;;;;18.13;10.47;;;;;;;-145.14;100.00;70583.66;5012044;28;20266;-78
2022/10/30 09:35:19;;;;;;;19.60;10.80;;;;;;;-145.14;100.00;70583.66;5007974;28;20293;-79
2022/10/30 09:37:44;;;;;;;20.30;11.80;;;;;;;-145.14;100.00;70583.66;5020104;28;20493;-78
2022/10/30 09:40:24;;;;;;;17.90;11.90;;;;;;;-145.14;100.00;70583.66;4990421;28;20189;-75
2022/10/30 09:42:50;;;;;;;17.97;10.93;;;;;;;-145.14;100.00;70583.66;5003306;28;20307;-76
2022/10/30 09:45:27;;;;;;;18.93;11.57;;;;;;;-145.14;100.00;70583.66;5000319;28;20439;-77
2022/10/30 09:48:09;;;;;;;15.20;11.17;;;;;;;-145.14;100.00;70583.66;5020874;28;20476;-77
2022/10/30 09:50:35;;;;;;;17.40;10.97;;;;;;;-145.14;100.00;70583.66;5020577;28;20512;-78
2022/10/30 09:53:37;;;;;;;13.40;10.20;;;;;;;-145.14;100.00;70583.66;5015813;28;21138;-77
2022/10/30 09:56:19;;;;;;;13.87;11.00;;;;;;;-145.14;100.00;70583.66;5001669;28;20568;-75
2022/10/30 09:59:27;;;;;;;15.30;9.60;;;;;;;-145.14;100.00;70583.66;5020499;28;20508;-77
2022/10/30 10:02:11;;;;;;;17.53;9.03;;;;;;;-145.14;100.00;70583.66;5020900;28;20817;-77
2022/10/30 10:04:43;;;;;;;14.27;10.37;;;;;;;-145.14;100.00;70583.66;5011905;28;20446;-77
2022/10/30 10:07:31;;;;;;;16.17;10.47;;;;;;;-145.14;100.00;70583.66;5008999;28;20478;-77
2022/10/30 10:10:04;;;;;;;19.50;10.30;;;;;;;-145.14;100.00;70583.66;5015720;28;20500;-76
2022/10/30 10:12:34;;;;;;;18.90;10.63;;;;;;;-145.14;100.00;70583.66;5018079;28;20477;-75
2022/10/30 10:15:03;;;;;;;10.93;8.37;;;;;;;-145.14;100.00;70583.66;4999041;28;20857;-76
2022/10/30 10:20:01;;;;;;;12.07;8.43;;;;;;;-145.14;100.00;70583.66;5016491;28;20498;-76
2022/10/30 10:22:40;;;;;;;13.17;8.70;;;;;;;-145.14;100.00;70583.66;5023360;28;20439;-77
2022/10/30 10:25:14;;;;;;;11.67;8.47;;;;;;;-145.14;100.00;70583.66;5032007;28;20446;-77
2022/10/30 10:27:58;;;;;;;16.43;9.90;;;;;;;-145.14;100.00;70583.66;5014466;28;20477;-75
2022/10/30 10:30:55;;;;;;;14.47;9.37;;;;;;;-145.14;100.00;70583.66;5028652;28;20438;-77
2022/10/30 10:33:29;;;;;;;11.97;9.57;;;;;;;-145.14;100.00;70583.66;5020253;28;20439;-75
2022/10/30 10:36:23;;;;;;;18.80;10.47;;;;;;;-145.14;100.00;70583.66;5039680;28;20491;-74
2022/10/30 10:39:22;;;;;;;18.43;8.83;;;;;;;-145.14;100.00;70583.66;5063149;28;20958;-75
2022/10/30 10:41:59;;;;;;;12.90;9.17;;;;;;;-145.14;100.00;70583.66;5044616;28;20422;-75
2022/10/30 10:44:51;;;;;;;13.00;9.00;;;;;;;-145.14;100.00;70583.66;5044442;28;20513;-75
2022/10/30 10:47:35;;;;;;;13.07;7.87;;;;;;;-145.14;100.00;70583.66;5044497;28;20472;-75
2022/10/30 10:50:19;;;;;;;11.57;7.07;;;;;;;-145.14;100.00;70583.66;5047046;28;20414;-75
2022/10/30 10:52:59;;;;;;;11.77;7.50;;;;;;;-145.14;100.00;70583.66;5024745;28;20426;-75
2022/10/30 10:55:30;;;;;;;14.67;8.10;;;;;;;-145.14;100.00;70583.66;5028164;28;20938;-75
2022/10/30 10:58:03;;;;;;;12.73;7.57;;;;;;;-145.14;100.00;70583.66;5046817;28;20458;-75
2022/10/30 11:00:29;;;;;;;13.50;7.83;;;;;;;-145.14;100.00;70583.66;5041902;28;20442;-75
2022/10/30 11:03:14;;;;;;;11.30;7.77;;;;;;;-145.14;100.00;70583.66;5047990;28;20437;-75
2022/10/30 11:05:56;;;;;;;11.77;7.00;;;;;;;-145.14;100.00;70583.66;5026887;28;20438;-75
2022/10/30 11:08:29;;;;;;;11.60;6.90;;;;;;;-145.14;100.00;70583.66;5045991;28;20469;-75
2022/10/30 11:11:06;;;;;;;11.40;7.40;;;;;;;-145.14;100.00;70583.66;5047032;28;20945;-75